createdAt,value
2018-08-31T00:01:14.456Z,21.15
2018-08-31T00:04:28.039Z,21.13
2018-08-31T00:09:18.777Z,21.17
2018-08-31T00:12:56.214Z,21.10
2018-08-31T00:15:27.476Z,21.11
2018-08-31T00:17:56.489Z,21.09
2018-08-31T00:20:25.174Z,20.90
2018-08-31T00:22:53.981Z,20.97
2018-08-31T00:26:12.831Z,20.96
2018-08-31T00:28:57.958Z,20.95
2018-08-31T00:33:55.138Z,20.90
2018-08-31T00:40:42.185Z,20.82
2018-08-31T00:43:24.132Z,20.76
2018-08-31T00:45:54.161Z,20.69
2018-08-31T00:48:26.741Z,20.70
2018-08-31T00:50:55.610Z,20.70
2018-08-31T00:53:24.224Z,20.69
2018-08-31T00:55:52.916Z,20.59
2018-08-31T00:58:22.068Z,20.64
2018-08-31T01:00:52.929Z,20.55
2018-08-31T01:03:21.554Z,20.58
2018-08-31T01:05:50.535Z,20.61
2018-08-31T01:08:33.525Z,20.54
2018-08-31T01:11:02.712Z,20.54
2018-08-31T01:13:31.529Z,20.44
2018-08-31T01:16:00.129Z,20.42
2018-08-31T01:18:30.302Z,20.42
2018-08-31T01:20:59.939Z,20.36
2018-08-31T01:23:28.722Z,20.43
2018-08-31T01:25:57.913Z,20.43
2018-08-31T01:28:26.678Z,20.40
2018-08-31T01:30:55.374Z,20.42
2018-08-31T01:33:25.170Z,20.35
2018-08-31T01:35:53.943Z,20.34
2018-08-31T01:38:23.996Z,20.37
2018-08-31T01:40:53.087Z,20.37
2018-08-31T01:43:21.800Z,20.38
2018-08-31T01:45:50.592Z,20.40
2018-08-31T01:48:19.735Z,20.37
2018-08-31T01:50:53.528Z,20.30
2018-08-31T01:53:28.568Z,20.25
2018-08-31T01:56:08.592Z,20.26
2018-08-31T01:58:37.188Z,20.12
2018-08-31T02:01:05.920Z,20.12
2018-08-31T02:03:34.625Z,20.15
2018-08-31T02:06:05.742Z,20.16
2018-08-31T02:08:34.869Z,20.17
2018-08-31T02:11:03.544Z,20.10
2018-08-31T02:13:34.171Z,20.11
2018-08-31T02:16:04.148Z,20.10
2018-08-31T02:18:35.261Z,20.05
2018-08-31T02:21:04.923Z,20.06
2018-08-31T02:23:38.740Z,20.04
2018-08-31T02:26:07.560Z,20.06
2018-08-31T02:28:36.270Z,20.03
2018-08-31T02:31:06.067Z,20.02
2018-08-31T02:33:35.624Z,19.93
2018-08-31T02:36:04.923Z,19.95
2018-08-31T02:38:33.790Z,19.97
2018-08-31T02:41:02.724Z,19.89
2018-08-31T02:43:32.484Z,19.83
2018-08-31T02:46:01.458Z,19.82
2018-08-31T02:48:30.395Z,19.84
2018-08-31T02:50:59.023Z,19.73
2018-08-31T02:53:29.201Z,19.76
2018-08-31T02:55:57.848Z,19.75
2018-08-31T02:58:26.673Z,19.73
2018-08-31T03:00:56.052Z,19.73
2018-08-31T03:03:24.918Z,19.61
2018-08-31T03:05:53.599Z,19.54
2018-08-31T03:08:22.553Z,19.47
2018-08-31T03:10:51.457Z,19.53
2018-08-31T03:13:26.575Z,19.56
2018-08-31T03:15:55.200Z,19.52
2018-08-31T03:18:25.329Z,19.49
2018-08-31T03:20:54.289Z,19.46
2018-08-31T03:23:22.968Z,19.48
2018-08-31T03:25:51.612Z,19.45
2018-08-31T03:28:20.701Z,19.47
2018-08-31T03:30:55.160Z,19.43
2018-08-31T03:33:23.888Z,19.41
2018-08-31T03:35:56.389Z,19.38
2018-08-31T03:38:25.109Z,19.28
2018-08-31T03:40:54.040Z,19.35
2018-08-31T03:43:22.680Z,19.42
2018-08-31T03:45:51.361Z,19.43
2018-08-31T03:48:20.979Z,19.43
2018-08-31T03:50:49.807Z,19.41
2018-08-31T03:53:19.930Z,19.39
2018-08-31T03:55:51.353Z,19.38
2018-08-31T03:58:20.065Z,19.37
2018-08-31T04:00:49.018Z,19.32
2018-08-31T04:03:18.511Z,19.31
2018-08-31T04:05:47.221Z,19.29
2018-08-31T04:08:15.828Z,19.23
2018-08-31T04:10:44.522Z,19.20
2018-08-31T04:13:13.792Z,19.20
2018-08-31T04:15:42.493Z,19.22
2018-08-31T04:18:11.256Z,19.20
2018-08-31T04:20:40.261Z,19.20
2018-08-31T04:23:09.011Z,19.18
2018-08-31T04:25:37.742Z,19.19
2018-08-31T04:28:06.934Z,19.15
2018-08-31T04:30:35.620Z,19.19
2018-08-31T04:33:04.325Z,19.19
2018-08-31T04:35:34.140Z,19.14
2018-08-31T04:38:06.372Z,19.03
2018-08-31T04:40:35.214Z,19.09
2018-08-31T04:43:05.190Z,19.13
2018-08-31T04:45:33.827Z,19.08
2018-08-31T04:48:09.181Z,19.06
2018-08-31T04:50:39.058Z,18.93
2018-08-31T04:53:08.427Z,19.00
2018-08-31T04:55:42.792Z,18.98
2018-08-31T04:58:11.861Z,18.94
2018-08-31T05:00:40.508Z,18.97
2018-08-31T05:03:09.210Z,18.97
2018-08-31T05:05:38.569Z,18.95
2018-08-31T05:08:07.414Z,19.02
2018-08-31T05:10:36.049Z,19.09
2018-08-31T05:13:05.035Z,19.08
2018-08-31T05:15:39.297Z,19.14
2018-08-31T05:18:07.955Z,19.14
2018-08-31T05:20:37.749Z,19.14
2018-08-31T05:23:06.814Z,19.24
2018-08-31T05:25:38.731Z,19.13
2018-08-31T05:28:07.835Z,19.25
2018-08-31T05:30:40.511Z,19.30
2018-08-31T05:33:09.184Z,19.29
2018-08-31T05:35:38.435Z,19.27
2018-08-31T05:38:07.267Z,19.33
2018-08-31T05:40:42.404Z,19.31
2018-08-31T05:43:17.361Z,19.34
2018-08-31T05:45:50.780Z,19.35
2018-08-31T05:48:19.927Z,19.35
2018-08-31T05:50:49.154Z,19.37
2018-08-31T05:53:19.147Z,19.44
2018-08-31T05:55:53.073Z,19.43
2018-08-31T05:58:36.401Z,19.35
2018-08-31T06:01:05.326Z,19.40
2018-08-31T06:03:34.729Z,19.43
2018-08-31T06:06:04.059Z,19.42
2018-08-31T06:08:37.638Z,19.43
2018-08-31T06:11:07.188Z,19.47
2018-08-31T06:13:36.423Z,19.42
2018-08-31T06:16:05.742Z,19.45
2018-08-31T06:18:45.744Z,19.29
2018-08-31T06:21:15.647Z,19.40
2018-08-31T06:23:44.428Z,19.34
2018-08-31T06:26:13.333Z,19.42
2018-08-31T06:28:42.034Z,19.47
2018-08-31T06:31:10.900Z,19.49
2018-08-31T06:33:47.348Z,19.49
2018-08-31T06:36:16.124Z,19.54
2018-08-31T06:38:45.296Z,19.60
2018-08-31T06:41:14.235Z,19.57
2018-08-31T06:43:44.392Z,19.57
2018-08-31T06:46:18.207Z,19.49
2018-08-31T06:48:47.121Z,19.60
2018-08-31T06:51:17.475Z,19.68
2018-08-31T06:53:46.143Z,19.68
2018-08-31T06:56:15.297Z,19.75
2018-08-31T07:01:23.983Z,19.86
2018-08-31T07:03:52.723Z,19.90
2018-08-31T07:06:21.368Z,20.03
2018-08-31T07:08:49.958Z,20.17
2018-08-31T07:11:18.876Z,20.26
2018-08-31T07:13:47.854Z,20.36
2018-08-31T07:16:21.986Z,20.45
2018-08-31T07:21:30.308Z,20.72
2018-08-31T07:23:59.576Z,20.88
2018-08-31T07:26:28.620Z,20.84
2018-08-31T07:28:59.016Z,20.90
2018-08-31T07:31:27.713Z,21.09
2018-08-31T07:33:56.715Z,21.04
2018-08-31T07:36:25.411Z,21.10
2018-08-31T07:38:53.984Z,21.00
2018-08-31T07:41:22.907Z,21.09
2018-08-31T07:43:51.663Z,21.13
2018-08-31T07:46:20.301Z,21.14
2018-08-31T07:48:48.978Z,21.26
2018-08-31T07:51:28.576Z,21.32
2018-08-31T07:53:57.337Z,21.40
2018-08-31T07:56:26.246Z,21.49
2018-08-31T07:58:54.837Z,21.55
2018-08-31T08:01:29.758Z,21.59
2018-08-31T08:03:58.740Z,21.50
2018-08-31T08:06:30.932Z,21.54
2018-08-31T08:08:59.659Z,21.52
2018-08-31T08:11:28.725Z,21.54
2018-08-31T08:13:57.442Z,21.53
2018-08-31T08:16:26.082Z,21.55
2018-08-31T08:18:55.127Z,21.52
2018-08-31T08:21:23.908Z,21.52
2018-08-31T08:23:53.019Z,21.48
2018-08-31T08:26:25.960Z,21.48
2018-08-31T08:28:54.733Z,21.45
2018-08-31T08:31:26.638Z,21.47
2018-08-31T08:33:55.601Z,21.51
2018-08-31T08:36:24.387Z,21.56
2018-08-31T08:38:53.189Z,21.61
2018-08-31T08:41:21.866Z,21.60
2018-08-31T08:43:50.552Z,21.66
2018-08-31T08:46:20.246Z,21.61
2018-08-31T08:48:49.130Z,21.73
2018-08-31T08:51:17.991Z,21.79
2018-08-31T08:53:46.724Z,21.86
2018-08-31T08:56:16.175Z,21.83
2018-08-31T08:58:45.166Z,21.92
2018-08-31T09:01:13.805Z,22.05
2018-08-31T09:03:42.452Z,22.06
2018-08-31T09:06:13.190Z,22.16
2018-08-31T09:08:41.808Z,22.32
2018-08-31T09:11:10.478Z,22.43
2018-08-31T09:13:39.368Z,22.50
2018-08-31T09:16:08.110Z,22.56
2018-08-31T09:18:36.887Z,22.58
2018-08-31T09:21:05.918Z,22.55
2018-08-31T09:23:34.568Z,22.55
2018-08-31T09:26:05.633Z,22.28
2018-08-31T09:28:40.186Z,22.42
2018-08-31T09:31:12.852Z,22.51
2018-08-31T09:33:43.056Z,22.40
2018-08-31T09:36:12.831Z,22.51
2018-08-31T09:38:41.654Z,22.66
2018-08-31T09:41:10.411Z,22.75
2018-08-31T09:43:39.382Z,22.83
2018-08-31T09:46:08.041Z,23.00
2018-08-31T09:48:36.742Z,23.05
2018-08-31T09:51:08.399Z,23.30
2018-08-31T09:53:37.157Z,23.46
2018-08-31T09:56:05.870Z,23.44
2018-08-31T09:58:40.587Z,23.62
2018-08-31T10:01:14.518Z,23.67
2018-08-31T10:03:43.361Z,23.60
2018-08-31T10:06:12.837Z,23.68
2018-08-31T10:08:41.526Z,23.78
2018-08-31T10:11:10.483Z,23.87
2018-08-31T10:13:39.199Z,23.89
2018-08-31T10:16:13.309Z,23.94
2018-08-31T10:18:42.301Z,24.03
2018-08-31T10:21:10.992Z,24.07
2018-08-31T10:23:44.715Z,24.13
2018-08-31T10:26:13.819Z,24.24
2018-08-31T10:28:42.464Z,24.26
2018-08-31T10:31:22.106Z,24.42
2018-08-31T10:33:51.049Z,24.46
2018-08-31T10:36:19.678Z,24.45
2018-08-31T10:38:48.317Z,24.66
2018-08-31T10:41:17.296Z,24.90
2018-08-31T10:43:45.987Z,24.89
2018-08-31T10:46:14.726Z,25.01
2018-08-31T10:48:43.707Z,25.12
2018-08-31T10:51:12.302Z,25.22
2018-08-31T10:53:41.017Z,25.33
2018-08-31T10:56:09.970Z,25.22
2018-08-31T10:58:38.663Z,25.23
2018-08-31T11:01:07.341Z,25.33
2018-08-31T11:03:36.298Z,25.43
2018-08-31T11:06:05.952Z,25.28
2018-08-31T11:08:39.910Z,25.46
2018-08-31T11:11:08.889Z,25.53
2018-08-31T11:13:37.732Z,25.67
2018-08-31T11:16:12.293Z,25.69
2018-08-31T11:18:41.251Z,25.53
2018-08-31T11:21:09.897Z,25.05
2018-08-31T11:23:38.618Z,25.26
2018-08-31T11:26:07.693Z,24.92
2018-08-31T11:28:36.338Z,24.97
2018-08-31T11:31:04.963Z,24.90
2018-08-31T11:33:38.309Z,24.85
2018-08-31T11:36:07.089Z,25.04
2018-08-31T11:38:35.735Z,24.81
2018-08-31T11:41:04.356Z,24.63
2018-08-31T11:43:34.365Z,24.58
2018-08-31T11:46:05.103Z,24.23
2018-08-31T11:48:35.405Z,24.38
2018-08-31T11:51:04.165Z,24.46
2018-08-31T11:53:33.562Z,24.43
2018-08-31T11:56:04.076Z,24.47
2018-08-31T11:58:32.902Z,24.53
2018-08-31T12:01:01.970Z,24.59
2018-08-31T12:03:30.643Z,24.78
2018-08-31T12:05:59.270Z,24.79
2018-08-31T12:08:28.282Z,25.05
2018-08-31T12:11:00.469Z,25.02
2018-08-31T12:13:29.097Z,24.93
2018-08-31T12:15:58.307Z,25.10
2018-08-31T12:18:27.032Z,25.28
2018-08-31T12:20:56.167Z,25.33
2018-08-31T12:23:25.060Z,25.29
2018-08-31T12:25:53.754Z,25.33
2018-08-31T12:28:22.392Z,25.34
2018-08-31T12:30:51.389Z,25.35
2018-08-31T12:33:20.096Z,25.43
2018-08-31T12:35:48.762Z,25.39
2018-08-31T12:38:17.794Z,25.35
2018-08-31T12:40:46.511Z,25.28
2018-08-31T12:43:15.183Z,25.26
2018-08-31T12:45:44.153Z,25.19
2018-08-31T12:48:12.790Z,25.00
2018-08-31T12:50:41.419Z,25.02
2018-08-31T12:53:10.341Z,25.05
2018-08-31T12:56:09.170Z,24.95
2018-08-31T12:58:38.185Z,24.86
2018-08-31T13:01:06.851Z,24.83
2018-08-31T13:03:35.846Z,24.86
2018-08-31T13:06:10.096Z,24.91
2018-08-31T13:08:38.752Z,25.06
2018-08-31T13:11:12.184Z,25.16
2018-08-31T13:13:41.109Z,25.19
2018-08-31T13:16:09.819Z,25.15
2018-08-31T13:18:38.607Z,25.12
2018-08-31T13:21:08.103Z,25.23
2018-08-31T13:23:36.945Z,25.12
2018-08-31T13:26:05.721Z,25.11
2018-08-31T13:28:34.660Z,25.20
2018-08-31T13:31:03.417Z,25.06
2018-08-31T13:33:32.193Z,25.01
2018-08-31T13:36:01.134Z,25.15
2018-08-31T13:38:29.952Z,25.35
2018-08-31T13:40:58.805Z,25.34
2018-08-31T13:43:27.786Z,25.58
2018-08-31T13:45:56.509Z,25.72
2018-08-31T13:48:25.152Z,25.78
2018-08-31T13:50:55.113Z,25.76
2018-08-31T13:53:29.342Z,25.90
2018-08-31T13:55:58.027Z,26.11
2018-08-31T13:58:27.798Z,26.56
2018-08-31T14:00:56.351Z,26.78
2018-08-31T14:03:24.977Z,26.74
2018-08-31T14:05:53.923Z,26.95
2018-08-31T14:08:22.564Z,26.93
2018-08-31T14:10:51.281Z,26.75
2018-08-31T14:13:20.404Z,26.53
2018-08-31T14:15:49.116Z,26.68
2018-08-31T14:18:18.731Z,26.80
2018-08-31T14:20:47.716Z,26.98
2018-08-31T14:23:21.752Z,26.90
2018-08-31T14:25:50.498Z,26.92
2018-08-31T14:28:20.101Z,26.56
2018-08-31T14:30:48.822Z,26.61
2018-08-31T14:33:17.460Z,26.70
2018-08-31T14:35:46.503Z,26.72
2018-08-31T14:38:15.579Z,26.83
2018-08-31T14:40:44.326Z,26.89
2018-08-31T14:43:13.506Z,26.77
2018-08-31T14:45:42.172Z,26.73
2018-08-31T14:48:15.296Z,26.86
2018-08-31T14:50:44.633Z,26.96
2018-08-31T14:53:13.477Z,26.93
2018-08-31T14:55:42.241Z,26.78
2018-08-31T14:58:13.695Z,26.68
2018-08-31T15:00:42.394Z,26.59
2018-08-31T15:03:11.257Z,26.61
2018-08-31T15:05:40.564Z,26.51
2018-08-31T15:08:09.428Z,26.50
2018-08-31T15:10:38.937Z,26.45
2018-08-31T15:13:07.912Z,26.34
2018-08-31T15:15:36.542Z,26.24
2018-08-31T15:18:05.967Z,26.14
2018-08-31T15:20:38.595Z,26.02
2018-08-31T15:23:07.222Z,25.90
2018-08-31T15:25:41.606Z,25.80
2018-08-31T15:28:10.323Z,25.51
2018-08-31T15:30:39.684Z,25.40
2018-08-31T15:33:09.398Z,25.34
2018-08-31T15:35:38.143Z,25.11
2018-08-31T15:38:06.986Z,25.05
2018-08-31T15:40:36.894Z,24.99
2018-08-31T15:43:05.573Z,24.93
2018-08-31T15:45:36.887Z,24.82
2018-08-31T15:48:07.048Z,24.70
2018-08-31T15:50:35.955Z,24.35
2018-08-31T15:53:04.542Z,24.18
2018-08-31T15:55:35.940Z,24.21
2018-08-31T15:58:05.509Z,23.78
2018-08-31T16:00:34.806Z,23.67
2018-08-31T16:03:04.384Z,23.68
2018-08-31T16:05:33.014Z,23.50
2018-08-31T16:08:01.860Z,23.22
2018-08-31T16:10:31.796Z,23.03
2018-08-31T16:13:00.434Z,23.05
2018-08-31T16:15:29.003Z,23.04
2018-08-31T16:17:59.700Z,22.89
2018-08-31T16:20:28.433Z,22.91
2018-08-31T16:23:00.170Z,22.68
2018-08-31T16:25:29.162Z,22.65
2018-08-31T16:27:57.858Z,22.60
2018-08-31T16:30:26.534Z,22.60
2018-08-31T16:32:56.149Z,22.54
2018-08-31T16:35:35.445Z,22.40
2018-08-31T16:38:05.199Z,22.39
2018-08-31T16:40:34.986Z,22.34
2018-08-31T16:43:14.458Z,22.36
2018-08-31T16:45:43.465Z,22.19
2018-08-31T16:48:12.148Z,22.23
2018-08-31T16:50:41.664Z,22.12
2018-08-31T16:53:11.608Z,22.02
2018-08-31T16:55:40.466Z,22.02
2018-08-31T16:58:09.083Z,21.99
2018-08-31T17:00:38.028Z,22.10
2018-08-31T17:03:08.487Z,22.05
2018-08-31T17:05:37.279Z,21.91
2018-08-31T17:08:06.942Z,21.98
2018-08-31T17:10:35.710Z,21.95
2018-08-31T17:13:04.396Z,21.92
2018-08-31T17:15:33.949Z,21.93
2018-08-31T17:18:03.911Z,21.89
2018-08-31T17:20:43.663Z,21.84
2018-08-31T17:23:13.135Z,21.79
2018-08-31T17:28:21.150Z,21.58
2018-08-31T17:30:59.140Z,21.57
2018-08-31T17:33:32.930Z,21.62
2018-08-31T17:36:06.866Z,21.47
2018-08-31T17:38:35.516Z,21.43
2018-08-31T17:43:44.315Z,21.42
2018-08-31T17:46:12.991Z,21.45
2018-08-31T17:48:41.577Z,21.38
2018-08-31T17:51:11.635Z,21.37
2018-08-31T17:53:40.564Z,21.41
2018-08-31T17:56:20.083Z,21.34
2018-08-31T17:58:49.792Z,21.36
2018-08-31T18:01:20.218Z,21.34
2018-08-31T18:03:48.888Z,21.38
2018-08-31T18:06:25.412Z,21.37
2018-08-31T18:08:54.071Z,21.36
2018-08-31T18:11:23.655Z,21.39
2018-08-31T18:13:52.682Z,21.40
2018-08-31T18:16:21.471Z,21.34
2018-08-31T18:18:50.705Z,21.00
2018-08-31T18:21:19.855Z,21.02
2018-08-31T18:23:49.540Z,20.70
2018-08-31T18:26:18.379Z,20.56
2018-08-31T18:28:53.101Z,20.48
2018-08-31T18:31:21.888Z,20.39
2018-08-31T18:33:50.640Z,20.43
2018-08-31T18:36:19.637Z,20.41
2018-08-31T18:38:48.541Z,20.27
2018-08-31T18:41:22.794Z,20.08
2018-08-31T18:43:58.406Z,19.99
2018-08-31T18:46:27.151Z,20.13
2018-08-31T18:48:58.980Z,20.21
2018-08-31T18:51:27.692Z,20.28
2018-08-31T18:53:59.541Z,20.27
2018-08-31T18:56:28.665Z,20.36
2018-08-31T18:58:57.340Z,20.43
2018-08-31T19:01:25.991Z,20.48
2018-08-31T19:03:55.967Z,20.33
2018-08-31T19:06:24.592Z,20.17
2018-08-31T19:08:53.205Z,20.15
2018-08-31T19:11:22.298Z,20.30
2018-08-31T19:13:53.260Z,20.38
2018-08-31T19:16:21.853Z,20.47
2018-08-31T19:18:51.029Z,20.50
2018-08-31T19:21:19.714Z,20.49
2018-08-31T19:23:48.363Z,20.19
2018-08-31T19:26:19.033Z,20.35
2018-08-31T19:28:47.806Z,20.42
2018-08-31T19:31:16.697Z,20.24
2018-08-31T19:33:45.823Z,19.73
2018-08-31T19:36:14.512Z,19.54
2018-08-31T19:38:43.236Z,19.74
2018-08-31T19:41:12.446Z,19.85
2018-08-31T19:43:41.256Z,19.87
2018-08-31T19:46:09.897Z,20.01
2018-08-31T19:48:39.131Z,20.13
2018-08-31T19:51:07.800Z,20.12
2018-08-31T19:53:36.609Z,20.08
2018-08-31T19:56:06.039Z,20.21
2018-08-31T19:58:40.642Z,20.30
2018-08-31T20:01:09.386Z,20.15
2018-08-31T20:03:47.088Z,19.99
2018-08-31T20:06:15.806Z,19.78
2018-08-31T20:08:44.969Z,19.97
2018-08-31T20:11:13.727Z,19.74
2018-08-31T20:13:42.470Z,19.71
2018-08-31T20:16:11.996Z,19.82
2018-08-31T20:18:41.042Z,19.79
2018-08-31T20:21:09.664Z,19.76
2018-08-31T20:23:38.670Z,19.70
2018-08-31T20:26:12.821Z,19.77
2018-08-31T20:28:41.519Z,19.57
2018-08-31T20:31:13.983Z,19.42
2018-08-31T20:33:43.322Z,19.50
2018-08-31T20:36:12.257Z,19.32
2018-08-31T20:38:40.906Z,19.43
2018-08-31T20:41:09.453Z,19.59
2018-08-31T20:43:38.168Z,19.68
2018-08-31T20:46:06.830Z,19.78
2018-08-31T20:48:35.785Z,19.63
2018-08-31T20:51:05.453Z,19.51
2018-08-31T20:53:34.144Z,19.60
2018-08-31T20:56:07.893Z,19.58
2018-08-31T20:58:36.664Z,19.71
2018-08-31T21:01:05.435Z,19.77
2018-08-31T21:03:34.419Z,19.62
2018-08-31T21:06:03.470Z,19.68
2018-08-31T21:08:33.251Z,19.71
2018-08-31T21:11:02.138Z,19.38
2018-08-31T21:13:30.927Z,19.50
2018-08-31T21:15:59.597Z,19.31
2018-08-31T21:18:28.581Z,19.38
2018-08-31T21:20:57.246Z,19.40
2018-08-31T21:23:25.915Z,19.54
2018-08-31T21:25:56.152Z,19.56
2018-08-31T21:28:24.757Z,19.56
2018-08-31T21:30:53.372Z,19.70
2018-08-31T21:33:22.385Z,19.74
2018-08-31T21:35:50.992Z,19.80
2018-08-31T21:38:25.096Z,19.85
2018-08-31T21:40:53.739Z,19.91
2018-08-31T21:43:22.343Z,19.94
2018-08-31T21:45:51.046Z,19.93
2018-08-31T21:48:20.025Z,19.92
2018-08-31T21:50:48.726Z,19.94
2018-08-31T21:53:17.441Z,19.94
2018-08-31T21:55:46.455Z,19.96
2018-08-31T21:58:15.105Z,20.00
2018-08-31T22:00:44.473Z,20.04
2018-08-31T22:03:16.215Z,20.02
2018-08-31T22:05:48.832Z,20.00
2018-08-31T22:08:18.435Z,19.98
2018-08-31T22:13:27.760Z,20.00
2018-08-31T22:15:56.810Z,19.99
2018-08-31T22:18:25.493Z,19.98
2018-08-31T22:20:54.244Z,19.91
2018-08-31T22:23:23.147Z,19.86
2018-08-31T22:25:51.849Z,19.75
2018-08-31T22:28:20.529Z,19.77
2018-08-31T22:30:50.048Z,19.77
2018-08-31T22:33:19.127Z,19.77
2018-08-31T22:38:30.247Z,19.68
2018-08-31T22:41:00.285Z,19.66
2018-08-31T22:43:34.350Z,19.55
2018-08-31T22:46:05.085Z,19.48
2018-08-31T22:48:33.830Z,19.33
2018-08-31T22:51:02.638Z,19.34
2018-08-31T22:53:31.337Z,19.29
2018-08-31T22:56:04.838Z,19.23
2018-08-31T22:58:33.830Z,19.24
2018-08-31T23:01:02.631Z,19.15
2018-08-31T23:03:31.328Z,19.03
2018-08-31T23:06:06.049Z,18.97
2018-08-31T23:08:36.334Z,18.96
2018-08-31T23:11:05.214Z,18.97
2018-08-31T23:13:35.755Z,18.96
2018-08-31T23:16:06.075Z,18.90
2018-08-31T23:18:34.745Z,18.79
2018-08-31T23:21:05.927Z,18.75
2018-08-31T23:23:39.806Z,18.75
2018-08-31T23:26:09.729Z,18.74
2018-08-31T23:28:41.731Z,18.71
2018-08-31T23:31:11.832Z,18.70
2018-08-31T23:33:40.494Z,18.74
2018-08-31T23:36:13.351Z,18.79
2018-08-31T23:38:41.980Z,18.79
2018-08-31T23:41:13.082Z,18.81
2018-08-31T23:43:42.243Z,18.81
2018-08-31T23:46:17.216Z,18.81
2018-08-31T23:48:45.933Z,18.80
2018-08-31T23:51:16.839Z,18.81
2018-08-31T23:53:45.606Z,18.79
2018-08-31T23:56:19.236Z,18.80
2018-08-31T23:58:47.871Z,18.78
